sensor_id;sensor_type;location;lat;lon;timestamp;pressure;altitude;pressure_sealevel;temperature;humidity
65685;BME280;52405;50.844;-1.062;2022-12-18T00:01:24;102335.94;;;4.81;62.50
65685;BME280;52405;50.844;-1.062;2022-12-18T00:03:52;102323.06;;;4.71;62.62
65685;BME280;52405;50.844;-1.062;2022-12-18T00:06:18;102323.44;;;4.65;63.25
65685;BME280;52405;50.844;-1.062;2022-12-18T00:08:44;102320.59;;;4.52;63.12
65685;BME280;52405;50.844;-1.062;2022-12-18T00:11:13;102317.78;;;4.49;63.56
65685;BME280;52405;50.844;-1.062;2022-12-18T00:13:39;102314.78;;;4.34;62.80
65685;BME280;52405;50.844;-1.062;2022-12-18T00:16:08;102314.38;;;4.29;64.20
65685;BME280;52405;50.844;-1.062;2022-12-18T00:18:34;102314.88;;;4.25;64.02
65685;BME280;52405;50.844;-1.062;2022-12-18T00:21:03;102302.91;;;4.25;63.31
65685;BME280;52405;50.844;-1.062;2022-12-18T00:23:30;102295.19;;;4.25;63.40
65685;BME280;52405;50.844;-1.062;2022-12-18T00:26:00;102298.66;;;4.26;64.10
65685;BME280;52405;50.844;-1.062;2022-12-18T00:28:25;102295.47;;;4.29;64.17
65685;BME280;52405;50.844;-1.062;2022-12-18T00:31:00;102291.34;;;4.31;63.29
65685;BME280;52405;50.844;-1.062;2022-12-18T00:33:25;102288.91;;;4.32;62.89
65685;BME280;52405;50.844;-1.062;2022-12-18T00:35:51;102285.97;;;4.38;63.23
65685;BME280;52405;50.844;-1.062;2022-12-18T00:38:16;102286.09;;;4.39;62.60
65685;BME280;52405;50.844;-1.062;2022-12-18T00:40:42;102285.31;;;4.40;62.56
65685;BME280;52405;50.844;-1.062;2022-12-18T00:43:09;102289.44;;;4.38;63.42
65685;BME280;52405;50.844;-1.062;2022-12-18T00:45:34;102263.44;;;4.25;63.10
65685;BME280;52405;50.844;-1.062;2022-12-18T00:48:00;102269.47;;;4.25;62.52
65685;BME280;52405;50.844;-1.062;2022-12-18T00:50:25;102265.59;;;4.20;63.49
65685;BME280;52405;50.844;-1.062;2022-12-18T00:52:51;102252.22;;;4.14;63.53
65685;BME280;52405;50.844;-1.062;2022-12-18T00:55:17;102245.78;;;4.09;63.44
65685;BME280;52405;50.844;-1.062;2022-12-18T00:57:43;102229.06;;;3.94;63.23
65685;BME280;52405;50.844;-1.062;2022-12-18T01:00:12;102252.19;;;4.04;63.87
65685;BME280;52405;50.844;-1.062;2022-12-18T01:02:38;102250.28;;;4.01;63.72
65685;BME280;52405;50.844;-1.062;2022-12-18T01:05:04;102224.28;;;3.88;63.52
65685;BME280;52405;50.844;-1.062;2022-12-18T01:07:30;102236.34;;;3.89;63.60
65685;BME280;52405;50.844;-1.062;2022-12-18T01:09:55;102219.25;;;3.79;63.44
65685;BME280;52405;50.844;-1.062;2022-12-18T01:12:21;102216.16;;;3.83;63.81
65685;BME280;52405;50.844;-1.062;2022-12-18T01:14:46;102205.34;;;3.77;63.08
65685;BME280;52405;50.844;-1.062;2022-12-18T01:17:12;102197.75;;;3.69;63.69
65685;BME280;52405;50.844;-1.062;2022-12-18T01:19:37;102214.84;;;3.78;63.32
65685;BME280;52405;50.844;-1.062;2022-12-18T01:22:03;102225.41;;;3.81;63.26
65685;BME280;52405;50.844;-1.062;2022-12-18T01:24:28;102221.28;;;3.83;63.89
65685;BME280;52405;50.844;-1.062;2022-12-18T01:26:54;102213.06;;;3.88;64.16
65685;BME280;52405;50.844;-1.062;2022-12-18T01:29:19;102206.00;;;3.85;64.11
65685;BME280;52405;50.844;-1.062;2022-12-18T01:31:45;102220.56;;;3.95;64.35
65685;BME280;52405;50.844;-1.062;2022-12-18T01:34:10;102220.59;;;4.05;64.32
65685;BME280;52405;50.844;-1.062;2022-12-18T01:36:37;102206.94;;;4.06;63.59
65685;BME280;52405;50.844;-1.062;2022-12-18T01:39:12;102220.34;;;4.22;63.87
65685;BME280;52405;50.844;-1.062;2022-12-18T01:41:38;102213.31;;;4.30;62.98
65685;BME280;52405;50.844;-1.062;2022-12-18T01:49:58;102221.25;;;4.54;63.09
65685;BME280;52405;50.844;-1.062;2022-12-18T01:52:28;102224.38;;;4.60;62.11
65685;BME280;52405;50.844;-1.062;2022-12-18T01:54:54;102229.88;;;4.64;62.36
65685;BME280;52405;50.844;-1.062;2022-12-18T01:57:20;102226.78;;;4.69;62.15
65685;BME280;52405;50.844;-1.062;2022-12-18T01:59:50;102227.06;;;4.72;61.87
65685;BME280;52405;50.844;-1.062;2022-12-18T02:02:18;102223.84;;;4.74;62.28
65685;BME280;52405;50.844;-1.062;2022-12-18T02:04:44;102217.56;;;4.71;61.45
65685;BME280;52405;50.844;-1.062;2022-12-18T02:07:29;102229.91;;;4.75;62.46
65685;BME280;52405;50.844;-1.062;2022-12-18T02:10:02;102234.25;;;4.76;62.54
65685;BME280;52405;50.844;-1.062;2022-12-18T02:12:39;102236.97;;;4.77;61.56
65685;BME280;52405;50.844;-1.062;2022-12-18T02:15:14;102235.78;;;4.74;61.92
65685;BME280;52405;50.844;-1.062;2022-12-18T02:17:54;102236.19;;;4.78;62.12
65685;BME280;52405;50.844;-1.062;2022-12-18T02:20:43;102233.75;;;4.80;61.68
65685;BME280;52405;50.844;-1.062;2022-12-18T02:23:37;102229.63;;;4.82;61.96
65685;BME280;52405;50.844;-1.062;2022-12-18T02:28:34;102212.25;;;4.90;62.26
65685;BME280;52405;50.844;-1.062;2022-12-18T02:31:03;102218.28;;;4.90;61.39
65685;BME280;52405;50.844;-1.062;2022-12-18T02:33:30;102209.00;;;4.92;61.53
65685;BME280;52405;50.844;-1.062;2022-12-18T02:35:58;102202.81;;;5.00;62.12
65685;BME280;52405;50.844;-1.062;2022-12-18T02:38:25;102192.88;;;5.05;62.64
65685;BME280;52405;50.844;-1.062;2022-12-18T02:40:52;102163.59;;;4.93;62.39
65685;BME280;52405;50.844;-1.062;2022-12-18T02:43:19;102203.72;;;5.11;62.39
65685;BME280;52405;50.844;-1.062;2022-12-18T02:45:51;102197.88;;;5.14;62.43
65685;BME280;52405;50.844;-1.062;2022-12-18T02:48:25;102184.41;;;5.06;61.52
65685;BME280;52405;50.844;-1.062;2022-12-18T02:56:11;102177.78;;;5.20;62.71
65685;BME280;52405;50.844;-1.062;2022-12-18T03:01:37;102170.19;;;5.21;61.99
65685;BME280;52405;50.844;-1.062;2022-12-18T03:04:11;102146.13;;;5.11;62.06
65685;BME280;52405;50.844;-1.062;2022-12-18T03:06:42;102171.09;;;5.22;62.33
65685;BME280;52405;50.844;-1.062;2022-12-18T03:09:19;102170.44;;;5.25;62.63
65685;BME280;52405;50.844;-1.062;2022-12-18T03:11:54;102176.47;;;5.25;62.41
65685;BME280;52405;50.844;-1.062;2022-12-18T03:14:41;102170.69;;;5.28;61.45
65685;BME280;52405;50.844;-1.062;2022-12-18T03:17:15;102162.16;;;5.29;62.36
65685;BME280;52405;50.844;-1.062;2022-12-18T03:19:43;102154.44;;;5.29;62.01
65685;BME280;52405;50.844;-1.062;2022-12-18T03:22:11;102159.03;;;5.33;62.00
65685;BME280;52405;50.844;-1.062;2022-12-18T03:24:38;102156.72;;;5.36;60.49
65685;BME280;52405;50.844;-1.062;2022-12-18T03:27:08;102139.09;;;5.30;60.87
65685;BME280;52405;50.844;-1.062;2022-12-18T03:29:40;102161.34;;;5.40;61.38
65685;BME280;52405;50.844;-1.062;2022-12-18T03:32:11;102156.44;;;5.43;60.80
65685;BME280;52405;50.844;-1.062;2022-12-18T03:34:39;102149.97;;;5.48;61.11
65685;BME280;52405;50.844;-1.062;2022-12-18T03:37:06;102153.44;;;5.49;60.95
65685;BME280;52405;50.844;-1.062;2022-12-18T03:39:33;102154.47;;;5.51;60.45
65685;BME280;52405;50.844;-1.062;2022-12-18T03:42:15;102146.50;;;5.48;60.42
65685;BME280;52405;50.844;-1.062;2022-12-18T03:45:08;102152.91;;;5.53;61.31
65685;BME280;52405;50.844;-1.062;2022-12-18T03:52:57;102147.53;;;5.50;60.40
65685;BME280;52405;50.844;-1.062;2022-12-18T03:55:28;102133.63;;;5.48;60.90
65685;BME280;52405;50.844;-1.062;2022-12-18T03:57:56;102140.69;;;5.50;60.06
65685;BME280;52405;50.844;-1.062;2022-12-18T04:00:22;102145.72;;;5.49;59.59
65685;BME280;52405;50.844;-1.062;2022-12-18T04:02:52;102140.69;;;5.50;60.54
65685;BME280;52405;50.844;-1.062;2022-12-18T04:05:20;102145.84;;;5.50;60.56
65685;BME280;52405;50.844;-1.062;2022-12-18T04:07:49;102142.38;;;5.50;60.78
65685;BME280;52405;50.844;-1.062;2022-12-18T04:10:16;102138.25;;;5.52;60.61
65685;BME280;52405;50.844;-1.062;2022-12-18T04:12:42;102146.09;;;5.53;60.32
65685;BME280;52405;50.844;-1.062;2022-12-18T04:15:09;102143.72;;;5.56;59.80
65685;BME280;52405;50.844;-1.062;2022-12-18T04:17:36;102135.25;;;5.57;60.34
65685;BME280;52405;50.844;-1.062;2022-12-18T04:20:02;102143.09;;;5.59;60.71
65685;BME280;52405;50.844;-1.062;2022-12-18T04:22:28;102129.41;;;5.60;60.15
65685;BME280;52405;50.844;-1.062;2022-12-18T04:24:53;102121.03;;;5.63;59.37
65685;BME280;52405;50.844;-1.062;2022-12-18T04:27:19;102128.09;;;5.65;59.53
65685;BME280;52405;50.844;-1.062;2022-12-18T04:29:44;102132.59;;;5.68;60.52
65685;BME280;52405;50.844;-1.062;2022-12-18T04:32:10;102119.81;;;5.69;60.12
65685;BME280;52405;50.844;-1.062;2022-12-18T04:34:35;102109.75;;;5.72;59.80
65685;BME280;52405;50.844;-1.062;2022-12-18T04:37:01;102105.06;;;5.78;60.44
65685;BME280;52405;50.844;-1.062;2022-12-18T04:39:26;102088.84;;;5.79;60.79
65685;BME280;52405;50.844;-1.062;2022-12-18T04:41:52;102071.34;;;5.75;60.37
65685;BME280;52405;50.844;-1.062;2022-12-18T04:44:17;102070.91;;;5.81;59.97
65685;BME280;52405;50.844;-1.062;2022-12-18T04:46:43;102075.06;;;5.91;59.55
65685;BME280;52405;50.844;-1.062;2022-12-18T04:49:09;102065.78;;;5.93;59.67
65685;BME280;52405;50.844;-1.062;2022-12-18T04:51:36;102060.72;;;5.94;59.49
65685;BME280;52405;50.844;-1.062;2022-12-18T04:54:02;102062.66;;;5.97;60.71
65685;BME280;52405;50.844;-1.062;2022-12-18T04:56:28;102042.84;;;5.96;60.54
65685;BME280;52405;50.844;-1.062;2022-12-18T04:58:53;102046.44;;;5.98;60.85
65685;BME280;52405;50.844;-1.062;2022-12-18T05:01:19;102044.84;;;6.00;60.74
65685;BME280;52405;50.844;-1.062;2022-12-18T05:03:44;102046.66;;;6.01;60.38
65685;BME280;52405;50.844;-1.062;2022-12-18T05:06:10;102043.16;;;6.01;59.64
65685;BME280;52405;50.844;-1.062;2022-12-18T05:08:36;102042.53;;;6.03;59.58
65685;BME280;52405;50.844;-1.062;2022-12-18T05:11:12;102032.97;;;6.02;60.28
65685;BME280;52405;50.844;-1.062;2022-12-18T05:13:41;102022.00;;;6.05;60.17
65685;BME280;52405;50.844;-1.062;2022-12-18T05:16:07;102019.50;;;6.06;59.63
65685;BME280;52405;50.844;-1.062;2022-12-18T05:18:33;102021.31;;;6.07;60.02
65685;BME280;52405;50.844;-1.062;2022-12-18T05:20:59;102025.69;;;6.08;59.27
65685;BME280;52405;50.844;-1.062;2022-12-18T05:23:24;102027.50;;;6.09;59.60
65685;BME280;52405;50.844;-1.062;2022-12-18T05:25:58;102030.06;;;6.09;60.61
65685;BME280;52405;50.844;-1.062;2022-12-18T05:28:26;102018.50;;;6.04;60.74
65685;BME280;52405;50.844;-1.062;2022-12-18T05:30:54;102031.19;;;6.13;59.23
65685;BME280;52405;50.844;-1.062;2022-12-18T05:33:21;102022.69;;;6.14;59.45
65685;BME280;52405;50.844;-1.062;2022-12-18T05:35:58;102016.84;;;6.16;60.21
65685;BME280;52405;50.844;-1.062;2022-12-18T05:38:25;102005.97;;;6.21;59.70
65685;BME280;52405;50.844;-1.062;2022-12-18T05:40:51;102005.41;;;6.25;59.55
65685;BME280;52405;50.844;-1.062;2022-12-18T05:43:18;102002.81;;;6.25;60.12
65685;BME280;52405;50.844;-1.062;2022-12-18T05:45:44;101993.19;;;6.22;59.57
65685;BME280;52405;50.844;-1.062;2022-12-18T05:48:10;101980.06;;;6.19;59.66
65685;BME280;52405;50.844;-1.062;2022-12-18T05:50:38;101982.97;;;6.24;59.59
65685;BME280;52405;50.844;-1.062;2022-12-18T05:53:05;101956.94;;;6.21;59.40
65685;BME280;52405;50.844;-1.062;2022-12-18T05:55:39;101953.03;;;6.26;60.19
65685;BME280;52405;50.844;-1.062;2022-12-18T05:58:06;101953.59;;;6.22;59.35
65685;BME280;52405;50.844;-1.062;2022-12-18T06:00:33;101932.03;;;6.21;59.87
65685;BME280;52405;50.844;-1.062;2022-12-18T06:03:00;101932.28;;;6.24;58.93
65685;BME280;52405;50.844;-1.062;2022-12-18T06:05:25;101909.63;;;6.08;60.06
65685;BME280;52405;50.844;-1.062;2022-12-18T06:07:51;101931.38;;;6.24;59.01
65685;BME280;52405;50.844;-1.062;2022-12-18T06:10:17;101931.38;;;6.24;58.96
65685;BME280;52405;50.844;-1.062;2022-12-18T06:12:42;101940.91;;;6.25;59.15
65685;BME280;52405;50.844;-1.062;2022-12-18T06:15:08;101924.31;;;6.21;60.13
65685;BME280;52405;50.844;-1.062;2022-12-18T06:17:34;101931.63;;;6.27;59.83
65685;BME280;52405;50.844;-1.062;2022-12-18T06:19:59;101930.13;;;6.30;59.27
65685;BME280;52405;50.844;-1.062;2022-12-18T06:22:26;101934.28;;;6.28;59.33
65685;BME280;52405;50.844;-1.062;2022-12-18T06:24:51;101912.31;;;6.22;59.23
65685;BME280;52405;50.844;-1.062;2022-12-18T06:27:17;101904.78;;;6.25;59.56
65685;BME280;52405;50.844;-1.062;2022-12-18T06:29:42;101919.16;;;6.33;58.88
65685;BME280;52405;50.844;-1.062;2022-12-18T06:32:08;101920.59;;;6.29;59.00
65685;BME280;52405;50.844;-1.062;2022-12-18T06:34:34;101938.78;;;6.31;59.45
65685;BME280;52405;50.844;-1.062;2022-12-18T06:37:02;101932.06;;;6.33;60.31
65685;BME280;52405;50.844;-1.062;2022-12-18T06:39:27;101931.25;;;6.34;60.38
65685;BME280;52405;50.844;-1.062;2022-12-18T06:41:53;101918.16;;;6.31;59.62
65685;BME280;52405;50.844;-1.062;2022-12-18T06:44:19;101922.50;;;6.32;60.32
65685;BME280;52405;50.844;-1.062;2022-12-18T06:46:45;101921.72;;;6.33;60.55
65685;BME280;52405;50.844;-1.062;2022-12-18T06:49:10;101925.06;;;6.32;59.78
65685;BME280;52405;50.844;-1.062;2022-12-18T06:51:36;101913.09;;;6.32;59.83
65685;BME280;52405;50.844;-1.062;2022-12-18T06:54:01;101911.41;;;6.33;59.76
65685;BME280;52405;50.844;-1.062;2022-12-18T06:56:27;101924.44;;;6.34;60.07
65685;BME280;52405;50.844;-1.062;2022-12-18T06:58:53;101935.63;;;6.35;60.06
65685;BME280;52405;50.844;-1.062;2022-12-18T07:01:18;101944.94;;;6.33;60.01
65685;BME280;52405;50.844;-1.062;2022-12-18T07:03:44;101941.69;;;6.35;60.17
65685;BME280;52405;50.844;-1.062;2022-12-18T07:06:17;101942.69;;;6.37;61.30
65685;BME280;52405;50.844;-1.062;2022-12-18T07:08:44;101929.22;;;6.30;61.22
65685;BME280;52405;50.844;-1.062;2022-12-18T07:11:11;101936.41;;;6.34;61.92
65685;BME280;52405;50.844;-1.062;2022-12-18T07:13:36;101935.63;;;6.35;60.92
65685;BME280;52405;50.844;-1.062;2022-12-18T07:16:10;101937.31;;;6.34;61.03
65685;BME280;52405;50.844;-1.062;2022-12-18T07:18:36;101930.25;;;6.32;61.02
65685;BME280;52405;50.844;-1.062;2022-12-18T07:21:04;101921.38;;;6.28;62.23
65685;BME280;52405;50.844;-1.062;2022-12-18T07:23:30;101913.75;;;6.30;61.36
65685;BME280;52405;50.844;-1.062;2022-12-18T07:26:03;101891.44;;;6.18;62.59
65685;BME280;52405;50.844;-1.062;2022-12-18T07:28:29;101909.16;;;6.26;61.64
65685;BME280;52405;50.844;-1.062;2022-12-18T07:30:55;101914.44;;;6.27;62.12
65685;BME280;52405;50.844;-1.062;2022-12-18T07:33:20;101901.44;;;6.26;62.04
65685;BME280;52405;50.844;-1.062;2022-12-18T07:35:45;101899.09;;;6.29;62.54
65685;BME280;52405;50.844;-1.062;2022-12-18T07:38:11;101899.97;;;6.29;62.91
65685;BME280;52405;50.844;-1.062;2022-12-18T07:40:36;101901.75;;;6.30;63.01
65685;BME280;52405;50.844;-1.062;2022-12-18T07:43:02;101905.38;;;6.32;62.77
65685;BME280;52405;50.844;-1.062;2022-12-18T07:45:27;101897.28;;;6.28;63.05
65685;BME280;52405;50.844;-1.062;2022-12-18T07:47:52;101908.94;;;6.34;63.05
65685;BME280;52405;50.844;-1.062;2022-12-18T07:50:18;101907.25;;;6.35;63.58
65685;BME280;52405;50.844;-1.062;2022-12-18T07:52:44;101908.81;;;6.33;62.45
65685;BME280;52405;50.844;-1.062;2022-12-18T07:55:09;101921.72;;;6.33;62.87
65685;BME280;52405;50.844;-1.062;2022-12-18T07:57:35;101917.47;;;6.33;62.79
65685;BME280;52405;50.844;-1.062;2022-12-18T08:00:00;101907.94;;;6.32;63.34
65685;BME280;52405;50.844;-1.062;2022-12-18T08:02:26;101910.53;;;6.32;63.92
65685;BME280;52405;50.844;-1.062;2022-12-18T08:04:51;101896.59;;;6.30;62.95
65685;BME280;52405;50.844;-1.062;2022-12-18T08:07:17;101894.81;;;6.29;63.97
65685;BME280;52405;50.844;-1.062;2022-12-18T08:09:42;101881.47;;;6.23;63.94
65685;BME280;52405;50.844;-1.062;2022-12-18T08:12:08;101893.00;;;6.28;63.56
65685;BME280;52405;50.844;-1.062;2022-12-18T08:14:33;101906.81;;;6.29;63.56
65685;BME280;52405;50.844;-1.062;2022-12-18T08:16:58;101891.81;;;6.23;63.87
65685;BME280;52405;50.844;-1.062;2022-12-18T08:19:24;101894.00;;;6.30;64.49
65685;BME280;52405;50.844;-1.062;2022-12-18T08:21:50;101884.50;;;6.29;64.47
65685;BME280;52405;50.844;-1.062;2022-12-18T08:24:15;101882.78;;;6.30;64.32
65685;BME280;52405;50.844;-1.062;2022-12-18T08:26:41;101900.09;;;6.31;63.85
65685;BME280;52405;50.844;-1.062;2022-12-18T08:29:06;101904.44;;;6.32;64.16
65685;BME280;52405;50.844;-1.062;2022-12-18T08:31:32;101889.31;;;6.25;64.50
65685;BME280;52405;50.844;-1.062;2022-12-18T08:33:58;101907.13;;;6.33;64.61
65685;BME280;52405;50.844;-1.062;2022-12-18T08:36:24;101903.66;;;6.33;63.71
65685;BME280;52405;50.844;-1.062;2022-12-18T08:38:50;101901.97;;;6.33;64.87
65685;BME280;52405;50.844;-1.062;2022-12-18T08:41:17;101916.88;;;6.37;64.90
65685;BME280;52405;50.844;-1.062;2022-12-18T08:43:43;101911.84;;;6.39;63.77
65685;BME280;52405;50.844;-1.062;2022-12-18T08:46:32;101879.78;;;6.24;64.27
65685;BME280;52405;50.844;-1.062;2022-12-18T08:48:59;101885.59;;;6.33;63.97
65685;BME280;52405;50.844;-1.062;2022-12-18T08:51:24;101899.16;;;6.42;64.76
65685;BME280;52405;50.844;-1.062;2022-12-18T08:53:50;101894.22;;;6.45;65.06
65685;BME280;52405;50.844;-1.062;2022-12-18T08:56:16;101900.41;;;6.47;64.94
65685;BME280;52405;50.844;-1.062;2022-12-18T08:58:42;101889.25;;;6.48;64.84
65685;BME280;52405;50.844;-1.062;2022-12-18T09:01:09;101899.81;;;6.51;64.12
65685;BME280;52405;50.844;-1.062;2022-12-18T09:03:36;101888.91;;;6.55;63.83
65685;BME280;52405;50.844;-1.062;2022-12-18T09:06:02;101888.34;;;6.60;65.10
65685;BME280;52405;50.844;-1.062;2022-12-18T09:08:28;101898.88;;;6.63;63.89
65685;BME280;52405;50.844;-1.062;2022-12-18T09:10:54;101888.44;;;6.61;64.26
65685;BME280;52405;50.844;-1.062;2022-12-18T09:13:20;101886.78;;;6.62;63.99
65685;BME280;52405;50.844;-1.062;2022-12-18T09:15:49;101878.13;;;6.61;65.37
65685;BME280;52405;50.844;-1.062;2022-12-18T09:18:15;101884.97;;;6.61;64.49
65685;BME280;52405;50.844;-1.062;2022-12-18T09:20:41;101881.41;;;6.59;64.99
65685;BME280;52405;50.844;-1.062;2022-12-18T09:23:07;101864.00;;;6.56;65.83
65685;BME280;52405;50.844;-1.062;2022-12-18T09:25:33;101841.59;;;6.43;65.17
65685;BME280;52405;50.844;-1.062;2022-12-18T09:28:10;101871.28;;;6.62;66.14
65685;BME280;52405;50.844;-1.062;2022-12-18T09:30:40;101865.22;;;6.61;65.74
65685;BME280;52405;50.844;-1.062;2022-12-18T09:33:06;101854.78;;;6.60;65.55
65685;BME280;52405;50.844;-1.062;2022-12-18T09:35:32;101861.53;;;6.57;66.04
65685;BME280;52405;50.844;-1.062;2022-12-18T09:37:58;101865.22;;;6.61;66.48
65685;BME280;52405;50.844;-1.062;2022-12-18T09:40:25;101865.31;;;6.63;66.94
65685;BME280;52405;50.844;-1.062;2022-12-18T09:42:55;101864.31;;;6.61;66.52
65685;BME280;52405;50.844;-1.062;2022-12-18T09:45:23;101863.63;;;6.63;66.42
65685;BME280;52405;50.844;-1.062;2022-12-18T09:47:50;101870.50;;;6.63;67.79
65685;BME280;52405;50.844;-1.062;2022-12-18T09:52:57;101844.91;;;6.66;67.80
65685;BME280;52405;50.844;-1.062;2022-12-18T09:55:40;101846.66;;;6.67;68.13
65685;BME280;52405;50.844;-1.062;2022-12-18T09:58:15;101847.59;;;6.67;68.28
65685;BME280;52405;50.844;-1.062;2022-12-18T10:00:42;101842.31;;;6.66;69.43
65685;BME280;52405;50.844;-1.062;2022-12-18T10:03:12;101838.75;;;6.64;67.48
65685;BME280;52405;50.844;-1.062;2022-12-18T10:08:29;101833.34;;;6.61;68.78
65685;BME280;52405;50.844;-1.062;2022-12-18T10:11:38;101844.44;;;6.60;69.78
65685;BME280;52405;50.844;-1.062;2022-12-18T10:19:43;101835.94;;;6.61;69.49
65685;BME280;52405;50.844;-1.062;2022-12-18T10:22:25;101838.50;;;6.61;69.47
65685;BME280;52405;50.844;-1.062;2022-12-18T10:24:58;101822.81;;;6.57;70.19
65685;BME280;52405;50.844;-1.062;2022-12-18T10:27:27;101830.19;;;6.65;69.57
65685;BME280;52405;50.844;-1.062;2022-12-18T10:29:54;101827.81;;;6.68;70.45
65685;BME280;52405;50.844;-1.062;2022-12-18T10:32:25;101809.22;;;6.60;70.98
65685;BME280;52405;50.844;-1.062;2022-12-18T10:34:55;101825.47;;;6.71;71.08
65685;BME280;52405;50.844;-1.062;2022-12-18T10:37:26;101816.03;;;6.71;70.19
65685;BME280;52405;50.844;-1.062;2022-12-18T10:40:11;101820.31;;;6.71;72.00
65685;BME280;52405;50.844;-1.062;2022-12-18T10:42:38;101822.78;;;6.69;72.02
65685;BME280;52405;50.844;-1.062;2022-12-18T10:47:34;101822.06;;;6.72;71.85
65685;BME280;52405;50.844;-1.062;2022-12-18T10:49:59;101821.50;;;6.76;71.90
65685;BME280;52405;50.844;-1.062;2022-12-18T10:52:28;101821.94;;;6.82;72.55
65685;BME280;52405;50.844;-1.062;2022-12-18T10:55:03;101805.72;;;6.85;72.78
65685;BME280;52405;50.844;-1.062;2022-12-18T10:57:33;101798.50;;;6.92;72.72
65685;BME280;52405;50.844;-1.062;2022-12-18T11:00:03;101785.91;;;6.97;71.74
65685;BME280;52405;50.844;-1.062;2022-12-18T11:02:38;101788.69;;;7.00;72.52
65685;BME280;52405;50.844;-1.062;2022-12-18T11:05:26;101770.81;;;7.03;73.22
65685;BME280;52405;50.844;-1.062;2022-12-18T11:07:52;101768.22;;;7.03;71.93
65685;BME280;52405;50.844;-1.062;2022-12-18T11:10:21;101758.50;;;6.99;72.87
65685;BME280;52405;50.844;-1.062;2022-12-18T11:12:47;101749.16;;;7.01;72.81
65685;BME280;52405;50.844;-1.062;2022-12-18T11:15:20;101761.09;;;7.12;72.61
65685;BME280;52405;50.844;-1.062;2022-12-18T11:17:48;101757.84;;;7.15;73.32
65685;BME280;52405;50.844;-1.062;2022-12-18T11:20:29;101752.06;;;7.19;72.71
65685;BME280;52405;50.844;-1.062;2022-12-18T11:23:04;101747.09;;;7.22;73.40
65685;BME280;52405;50.844;-1.062;2022-12-18T11:25:32;101742.00;;;7.24;73.22
65685;BME280;52405;50.844;-1.062;2022-12-18T11:28:47;101721.75;;;7.17;73.06
65685;BME280;52405;50.844;-1.062;2022-12-18T11:30:45;101729.53;;;7.30;73.12
65685;BME280;52405;50.844;-1.062;2022-12-18T11:33:21;101726.13;;;7.31;73.76
65685;BME280;52405;50.844;-1.062;2022-12-18T11:35:53;101697.81;;;7.19;73.49
65685;BME280;52405;50.844;-1.062;2022-12-18T11:38:30;101718.56;;;7.34;74.05
65685;BME280;52405;50.844;-1.062;2022-12-18T11:43:50;101696.41;;;7.38;73.87
65685;BME280;52405;50.844;-1.062;2022-12-18T11:46:39;101686.28;;;7.41;74.58
65685;BME280;52405;50.844;-1.062;2022-12-18T11:49:18;101676.00;;;7.42;74.21
65685;BME280;52405;50.844;-1.062;2022-12-18T11:51:51;101677.91;;;7.45;74.00
65685;BME280;52405;50.844;-1.062;2022-12-18T11:54:19;101673.53;;;7.44;74.39
65685;BME280;52405;50.844;-1.062;2022-12-18T11:57:31;101666.97;;;7.49;74.98
65685;BME280;52405;50.844;-1.062;2022-12-18T11:59:47;101663.59;;;7.50;75.20
65685;BME280;52405;50.844;-1.062;2022-12-18T12:04:56;101645.69;;;7.53;75.77
65685;BME280;52405;50.844;-1.062;2022-12-18T12:07:47;101640.13;;;7.47;75.16
65685;BME280;52405;50.844;-1.062;2022-12-18T12:13:12;101637.31;;;7.57;75.70
65685;BME280;52405;50.844;-1.062;2022-12-18T12:18:59;101630.75;;;7.62;75.71
65685;BME280;52405;50.844;-1.062;2022-12-18T12:21:39;101614.34;;;7.62;75.37
65685;BME280;52405;50.844;-1.062;2022-12-18T12:33:21;101579.59;;;7.71;76.23
65685;BME280;52405;50.844;-1.062;2022-12-18T12:35:29;101583.16;;;7.73;75.60
65685;BME280;52405;50.844;-1.062;2022-12-18T12:41:05;101572.81;;;7.73;76.11
65685;BME280;52405;50.844;-1.062;2022-12-18T12:43:52;101568.47;;;7.72;76.14
65685;BME280;52405;50.844;-1.062;2022-12-18T12:46:21;101560.59;;;7.71;76.55
65685;BME280;52405;50.844;-1.062;2022-12-18T12:48:56;101559.09;;;7.75;76.67
65685;BME280;52405;50.844;-1.062;2022-12-18T12:53:53;101561.78;;;7.76;77.27
65685;BME280;52405;50.844;-1.062;2022-12-18T12:56:20;101552.13;;;7.73;76.90
65685;BME280;52405;50.844;-1.062;2022-12-18T12:58:59;101561.69;;;7.75;77.33
65685;BME280;52405;50.844;-1.062;2022-12-18T13:04:08;101553.31;;;7.79;78.47
65685;BME280;52405;50.844;-1.062;2022-12-18T13:07:00;101560.53;;;7.84;77.38
65685;BME280;52405;50.844;-1.062;2022-12-18T13:09:31;101546.81;;;7.85;77.47
65685;BME280;52405;50.844;-1.062;2022-12-18T13:12:03;101539.16;;;7.87;77.34
65685;BME280;52405;50.844;-1.062;2022-12-18T13:14:48;101543.81;;;7.93;77.19
65685;BME280;52405;50.844;-1.062;2022-12-18T13:19:49;101527.75;;;7.98;77.71
65685;BME280;52405;50.844;-1.062;2022-12-18T13:22:28;101514.63;;;7.95;77.20
65685;BME280;52405;50.844;-1.062;2022-12-18T13:24:55;101524.81;;;8.07;77.36
65685;BME280;52405;50.844;-1.062;2022-12-18T13:35:50;101513.13;;;8.14;77.54
65685;BME280;52405;50.844;-1.062;2022-12-18T13:39:11;101511.50;;;8.16;77.53
65685;BME280;52405;50.844;-1.062;2022-12-18T13:41:37;101505.53;;;8.17;77.31
65685;BME280;52405;50.844;-1.062;2022-12-18T13:46:48;101499.72;;;8.21;77.94
65685;BME280;52405;50.844;-1.062;2022-12-18T13:51:59;101491.97;;;8.21;78.05
65685;BME280;52405;50.844;-1.062;2022-12-18T13:54:36;101481.63;;;8.21;78.14
65685;BME280;52405;50.844;-1.062;2022-12-18T13:57:04;101479.03;;;8.21;78.25
65685;BME280;52405;50.844;-1.062;2022-12-18T13:59:38;101476.53;;;8.22;77.56
65685;BME280;52405;50.844;-1.062;2022-12-18T14:02:16;101468.69;;;8.21;77.86
65685;BME280;52405;50.844;-1.062;2022-12-18T14:04:45;101468.88;;;8.24;78.81
65685;BME280;52405;50.844;-1.062;2022-12-18T14:07:28;101461.25;;;8.27;78.42
65685;BME280;52405;50.844;-1.062;2022-12-18T14:09:57;101466.50;;;8.28;78.24
65685;BME280;52405;50.844;-1.062;2022-12-18T14:12:33;101447.69;;;8.31;78.88
65685;BME280;52405;50.844;-1.062;2022-12-18T14:18:19;101446.34;;;8.38;78.51
65685;BME280;52405;50.844;-1.062;2022-12-18T14:20:46;101445.63;;;8.40;78.14
65685;BME280;52405;50.844;-1.062;2022-12-18T14:23:40;101432.88;;;8.43;78.82
65685;BME280;52405;50.844;-1.062;2022-12-18T14:26:28;101431.34;;;8.47;78.94